sensor_id;sensor_type;location;lat;lon;timestamp;P1;durP1;ratioP1;P2;durP2;ratioP2
60038;SDS011;45916;52.734;6.544;2023-03-01T00:00:53;24.33;;;20.55;;
60038;SDS011;45916;52.734;6.544;2023-03-01T00:03:19;26.40;;;23.52;;
60038;SDS011;45916;52.734;6.544;2023-03-01T00:05:45;28.85;;;22.55;;
60038;SDS011;45916;52.734;6.544;2023-03-01T00:08:12;25.67;;;20.92;;
60038;SDS011;45916;52.734;6.544;2023-03-01T00:10:38;30.20;;;23.15;;
60038;SDS011;45916;52.734;6.544;2023-03-01T00:13:03;28.90;;;20.67;;
60038;SDS011;45916;52.734;6.544;2023-03-01T00:15:30;25.25;;;19.73;;
60038;SDS011;45916;52.734;6.544;2023-03-01T00:17:56;26.73;;;21.65;;
60038;SDS011;45916;52.734;6.544;2023-03-01T00:20:22;34.47;;;24.98;;
60038;SDS011;45916;52.734;6.544;2023-03-01T00:22:48;31.67;;;25.40;;
60038;SDS011;45916;52.734;6.544;2023-03-01T00:25:14;32.65;;;24.98;;
60038;SDS011;45916;52.734;6.544;2023-03-01T00:27:40;35.30;;;27.35;;
60038;SDS011;45916;52.734;6.544;2023-03-01T00:30:05;34.72;;;26.92;;
60038;SDS011;45916;52.734;6.544;2023-03-01T00:32:32;25.85;;;21.63;;
60038;SDS011;45916;52.734;6.544;2023-03-01T00:34:57;28.98;;;22.92;;
60038;SDS011;45916;52.734;6.544;2023-03-01T00:37:23;27.77;;;21.95;;
60038;SDS011;45916;52.734;6.544;2023-03-01T00:39:49;29.25;;;24.30;;
60038;SDS011;45916;52.734;6.544;2023-03-01T00:42:15;28.23;;;23.30;;
60038;SDS011;45916;52.734;6.544;2023-03-01T00:44:42;34.83;;;25.83;;
60038;SDS011;45916;52.734;6.544;2023-03-01T00:47:08;26.40;;;22.95;;
60038;SDS011;45916;52.734;6.544;2023-03-01T00:49:34;32.38;;;25.95;;
60038;SDS011;45916;52.734;6.544;2023-03-01T00:51:59;33.08;;;25.85;;
60038;SDS011;45916;52.734;6.544;2023-03-01T00:54:25;40.03;;;30.83;;
60038;SDS011;45916;52.734;6.544;2023-03-01T00:56:51;35.28;;;27.52;;
60038;SDS011;45916;52.734;6.544;2023-03-01T00:59:16;34.33;;;26.63;;
60038;SDS011;45916;52.734;6.544;2023-03-01T01:01:42;25.13;;;19.73;;
60038;SDS011;45916;52.734;6.544;2023-03-01T01:04:09;33.22;;;27.73;;
60038;SDS011;45916;52.734;6.544;2023-03-01T01:06:37;33.75;;;26.52;;
60038;SDS011;45916;52.734;6.544;2023-03-01T01:09:09;36.95;;;26.67;;
60038;SDS011;45916;52.734;6.544;2023-03-01T01:11:42;33.47;;;25.98;;
60038;SDS011;45916;52.734;6.544;2023-03-01T01:14:08;32.20;;;27.77;;
60038;SDS011;45916;52.734;6.544;2023-03-01T01:16:34;30.00;;;24.67;;
60038;SDS011;45916;52.734;6.544;2023-03-01T01:19:00;27.98;;;23.45;;
60038;SDS011;45916;52.734;6.544;2023-03-01T01:21:26;31.40;;;25.85;;
60038;SDS011;45916;52.734;6.544;2023-03-01T01:23:52;32.17;;;24.45;;
60038;SDS011;45916;52.734;6.544;2023-03-01T01:26:19;26.90;;;21.63;;
60038;SDS011;45916;52.734;6.544;2023-03-01T01:28:46;30.45;;;24.70;;
60038;SDS011;45916;52.734;6.544;2023-03-01T01:31:12;31.58;;;24.23;;
60038;SDS011;45916;52.734;6.544;2023-03-01T01:33:39;27.90;;;22.35;;
60038;SDS011;45916;52.734;6.544;2023-03-01T01:36:05;33.90;;;26.50;;
60038;SDS011;45916;52.734;6.544;2023-03-01T01:38:32;34.22;;;27.05;;
60038;SDS011;45916;52.734;6.544;2023-03-01T01:40:58;41.22;;;31.75;;
60038;SDS011;45916;52.734;6.544;2023-03-01T01:43:26;41.67;;;31.92;;
60038;SDS011;45916;52.734;6.544;2023-03-01T01:45:59;37.20;;;29.20;;
60038;SDS011;45916;52.734;6.544;2023-03-01T01:48:52;38.90;;;29.98;;
60038;SDS011;45916;52.734;6.544;2023-03-01T01:51:23;42.28;;;31.98;;
60038;SDS011;45916;52.734;6.544;2023-03-01T01:53:53;41.15;;;30.67;;
60038;SDS011;45916;52.734;6.544;2023-03-01T01:56:24;42.45;;;31.77;;
60038;SDS011;45916;52.734;6.544;2023-03-01T01:58:53;37.92;;;28.52;;
60038;SDS011;45916;52.734;6.544;2023-03-01T02:01:19;37.70;;;29.67;;
60038;SDS011;45916;52.734;6.544;2023-03-01T02:03:46;40.85;;;31.85;;
60038;SDS011;45916;52.734;6.544;2023-03-01T02:06:15;54.28;;;37.78;;
60038;SDS011;45916;52.734;6.544;2023-03-01T02:09:02;42.15;;;32.55;;
60038;SDS011;45916;52.734;6.544;2023-03-01T02:11:32;50.58;;;36.28;;
60038;SDS011;45916;52.734;6.544;2023-03-01T02:13:58;46.05;;;32.03;;
60038;SDS011;45916;52.734;6.544;2023-03-01T02:16:23;38.75;;;30.58;;
60038;SDS011;45916;52.734;6.544;2023-03-01T02:18:51;44.53;;;32.00;;
60038;SDS011;45916;52.734;6.544;2023-03-01T02:27:05;39.75;;;30.20;;
60038;SDS011;45916;52.734;6.544;2023-03-01T02:29:31;45.33;;;31.92;;
60038;SDS011;45916;52.734;6.544;2023-03-01T02:31:58;131.15;;;48.22;;
60038;SDS011;45916;52.734;6.544;2023-03-01T02:34:27;115.40;;;41.65;;
60038;SDS011;45916;52.734;6.544;2023-03-01T02:36:56;525.08;;;112.07;;
60038;SDS011;45916;52.734;6.544;2023-03-01T02:39:26;446.55;;;88.38;;
60038;SDS011;45916;52.734;6.544;2023-03-01T02:41:59;409.40;;;82.95;;
60038;SDS011;45916;52.734;6.544;2023-03-01T02:44:26;169.50;;;55.85;;
60038;SDS011;45916;52.734;6.544;2023-03-01T02:46:52;186.45;;;54.03;;
60038;SDS011;45916;52.734;6.544;2023-03-01T02:54:48;102.35;;;39.80;;
60038;SDS011;45916;52.734;6.544;2023-03-01T02:57:15;249.48;;;59.30;;
60038;SDS011;45916;52.734;6.544;2023-03-01T02:59:41;320.23;;;61.75;;
60038;SDS011;45916;52.734;6.544;2023-03-01T03:02:18;511.10;;;120.53;;
60038;SDS011;45916;52.734;6.544;2023-03-01T03:04:46;174.97;;;46.53;;
60038;SDS011;45916;52.734;6.544;2023-03-01T03:07:12;281.50;;;61.85;;
60038;SDS011;45916;52.734;6.544;2023-03-01T03:09:37;166.55;;;50.47;;
60038;SDS011;45916;52.734;6.544;2023-03-01T03:12:03;228.40;;;60.03;;
60038;SDS011;45916;52.734;6.544;2023-03-01T03:14:29;161.75;;;44.47;;
60038;SDS011;45916;52.734;6.544;2023-03-01T03:16:55;104.53;;;39.10;;
60038;SDS011;45916;52.734;6.544;2023-03-01T03:19:20;70.72;;;36.20;;
60038;SDS011;45916;52.734;6.544;2023-03-01T03:21:46;187.30;;;63.80;;
60038;SDS011;45916;52.734;6.544;2023-03-01T03:24:12;238.25;;;63.28;;
60038;SDS011;45916;52.734;6.544;2023-03-01T03:26:38;178.57;;;45.28;;
60038;SDS011;45916;52.734;6.544;2023-03-01T03:29:03;141.80;;;38.40;;
60038;SDS011;45916;52.734;6.544;2023-03-01T03:31:29;224.85;;;56.92;;
60038;SDS011;45916;52.734;6.544;2023-03-01T03:33:55;157.52;;;50.17;;
60038;SDS011;45916;52.734;6.544;2023-03-01T03:36:22;225.55;;;57.00;;
60038;SDS011;45916;52.734;6.544;2023-03-01T03:38:49;289.48;;;72.55;;
60038;SDS011;45916;52.734;6.544;2023-03-01T03:41:15;115.03;;;42.40;;
60038;SDS011;45916;52.734;6.544;2023-03-01T03:43:41;84.88;;;38.97;;
60038;SDS011;45916;52.734;6.544;2023-03-01T03:46:09;46.28;;;31.50;;
60038;SDS011;45916;52.734;6.544;2023-03-01T03:48:37;98.22;;;40.63;;
60038;SDS011;45916;52.734;6.544;2023-03-01T03:51:09;42.58;;;31.50;;
60038;SDS011;45916;52.734;6.544;2023-03-01T03:53:40;48.92;;;37.03;;
60038;SDS011;45916;52.734;6.544;2023-03-01T03:56:06;46.15;;;35.00;;
60038;SDS011;45916;52.734;6.544;2023-03-01T03:58:32;38.33;;;30.88;;
60038;SDS011;45916;52.734;6.544;2023-03-01T04:00:58;44.90;;;35.63;;
60038;SDS011;45916;52.734;6.544;2023-03-01T04:03:24;47.30;;;35.30;;
60038;SDS011;45916;52.734;6.544;2023-03-01T04:05:51;42.22;;;32.95;;
60038;SDS011;45916;52.734;6.544;2023-03-01T04:08:18;31.90;;;25.83;;
60038;SDS011;45916;52.734;6.544;2023-03-01T04:13:14;43.00;;;30.15;;
60038;SDS011;45916;52.734;6.544;2023-03-01T04:15:45;33.20;;;24.98;;
60038;SDS011;45916;52.734;6.544;2023-03-01T04:18:16;29.13;;;24.20;;
60038;SDS011;45916;52.734;6.544;2023-03-01T04:20:43;41.20;;;29.92;;
60038;SDS011;45916;52.734;6.544;2023-03-01T04:23:16;32.50;;;26.53;;
60038;SDS011;45916;52.734;6.544;2023-03-01T04:28:27;32.87;;;28.00;;
60038;SDS011;45916;52.734;6.544;2023-03-01T04:31:08;32.05;;;26.25;;
60038;SDS011;45916;52.734;6.544;2023-03-01T04:33:38;36.53;;;28.42;;
60038;SDS011;45916;52.734;6.544;2023-03-01T04:36:12;35.80;;;27.97;;
60038;SDS011;45916;52.734;6.544;2023-03-01T04:38:40;36.28;;;28.08;;
60038;SDS011;45916;52.734;6.544;2023-03-01T04:41:07;31.55;;;25.17;;
60038;SDS011;45916;52.734;6.544;2023-03-01T04:43:35;33.63;;;27.10;;
60038;SDS011;45916;52.734;6.544;2023-03-01T04:46:09;36.37;;;28.07;;
60038;SDS011;45916;52.734;6.544;2023-03-01T04:48:38;32.47;;;25.83;;
60038;SDS011;45916;52.734;6.544;2023-03-01T04:51:05;28.33;;;23.93;;
60038;SDS011;45916;52.734;6.544;2023-03-01T04:53:31;29.60;;;22.57;;
60038;SDS011;45916;52.734;6.544;2023-03-01T04:55:57;33.03;;;24.67;;
60038;SDS011;45916;52.734;6.544;2023-03-01T04:58:24;35.13;;;27.63;;
60038;SDS011;45916;52.734;6.544;2023-03-01T05:00:51;31.07;;;24.57;;
60038;SDS011;45916;52.734;6.544;2023-03-01T05:03:18;31.40;;;25.73;;
60038;SDS011;45916;52.734;6.544;2023-03-01T05:05:45;30.63;;;24.77;;
60038;SDS011;45916;52.734;6.544;2023-03-01T05:08:12;34.13;;;25.73;;
60038;SDS011;45916;52.734;6.544;2023-03-01T05:10:51;32.07;;;24.90;;
60038;SDS011;45916;52.734;6.544;2023-03-01T05:13:18;31.93;;;26.03;;
60038;SDS011;45916;52.734;6.544;2023-03-01T05:15:48;30.40;;;24.50;;
60038;SDS011;45916;52.734;6.544;2023-03-01T05:18:25;30.93;;;23.63;;
60038;SDS011;45916;52.734;6.544;2023-03-01T05:20:53;29.65;;;24.95;;
60038;SDS011;45916;52.734;6.544;2023-03-01T05:23:21;28.63;;;22.55;;
60038;SDS011;45916;52.734;6.544;2023-03-01T05:25:47;32.67;;;24.27;;
60038;SDS011;45916;52.734;6.544;2023-03-01T05:28:14;33.10;;;26.33;;
60038;SDS011;45916;52.734;6.544;2023-03-01T05:30:40;32.53;;;26.30;;
60038;SDS011;45916;52.734;6.544;2023-03-01T05:33:06;31.73;;;27.27;;
60038;SDS011;45916;52.734;6.544;2023-03-01T05:35:39;34.23;;;27.67;;
60038;SDS011;45916;52.734;6.544;2023-03-01T05:40:32;30.50;;;24.95;;
60038;SDS011;45916;52.734;6.544;2023-03-01T05:42:59;29.47;;;24.67;;
60038;SDS011;45916;52.734;6.544;2023-03-01T05:45:26;31.23;;;25.40;;
60038;SDS011;45916;52.734;6.544;2023-03-01T05:47:52;33.28;;;28.02;;
60038;SDS011;45916;52.734;6.544;2023-03-01T05:50:24;34.50;;;26.93;;
60038;SDS011;45916;52.734;6.544;2023-03-01T05:52:52;32.22;;;25.67;;
60038;SDS011;45916;52.734;6.544;2023-03-01T05:55:22;33.20;;;27.07;;
60038;SDS011;45916;52.734;6.544;2023-03-01T05:57:48;37.97;;;28.53;;
60038;SDS011;45916;52.734;6.544;2023-03-01T06:00:16;33.63;;;27.87;;
60038;SDS011;45916;52.734;6.544;2023-03-01T06:05:09;34.77;;;26.03;;
60038;SDS011;45916;52.734;6.544;2023-03-01T06:07:36;33.17;;;26.53;;
60038;SDS011;45916;52.734;6.544;2023-03-01T06:10:02;36.10;;;27.77;;
60038;SDS011;45916;52.734;6.544;2023-03-01T06:12:30;33.38;;;26.65;;
60038;SDS011;45916;52.734;6.544;2023-03-01T06:15:00;35.67;;;28.03;;
60038;SDS011;45916;52.734;6.544;2023-03-01T06:17:26;34.53;;;27.67;;
60038;SDS011;45916;52.734;6.544;2023-03-01T06:19:54;33.90;;;28.03;;
60038;SDS011;45916;52.734;6.544;2023-03-01T06:22:20;37.13;;;30.00;;
60038;SDS011;45916;52.734;6.544;2023-03-01T06:24:46;37.63;;;27.97;;
60038;SDS011;45916;52.734;6.544;2023-03-01T06:27:11;38.60;;;27.47;;
60038;SDS011;45916;52.734;6.544;2023-03-01T06:29:37;39.23;;;28.73;;
60038;SDS011;45916;52.734;6.544;2023-03-01T06:32:03;34.87;;;27.40;;
60038;SDS011;45916;52.734;6.544;2023-03-01T06:34:29;35.47;;;29.47;;
60038;SDS011;45916;52.734;6.544;2023-03-01T06:36:55;36.57;;;28.53;;
60038;SDS011;45916;52.734;6.544;2023-03-01T06:39:20;38.67;;;31.73;;
60038;SDS011;45916;52.734;6.544;2023-03-01T06:41:46;37.90;;;30.13;;
60038;SDS011;45916;52.734;6.544;2023-03-01T06:44:12;44.47;;;33.55;;
60038;SDS011;45916;52.734;6.544;2023-03-01T06:46:38;52.03;;;35.83;;
60038;SDS011;45916;52.734;6.544;2023-03-01T06:49:05;52.97;;;36.50;;
60038;SDS011;45916;52.734;6.544;2023-03-01T06:51:34;52.03;;;34.97;;
60038;SDS011;45916;52.734;6.544;2023-03-01T06:54:02;47.92;;;35.00;;
60038;SDS011;45916;52.734;6.544;2023-03-01T06:56:29;47.88;;;34.03;;
60038;SDS011;45916;52.734;6.544;2023-03-01T06:58:55;40.08;;;31.13;;
60038;SDS011;45916;52.734;6.544;2023-03-01T07:01:21;36.53;;;28.65;;
60038;SDS011;45916;52.734;6.544;2023-03-01T07:03:46;33.22;;;27.73;;
60038;SDS011;45916;52.734;6.544;2023-03-01T07:06:12;28.48;;;24.15;;
60038;SDS011;45916;52.734;6.544;2023-03-01T07:08:38;26.75;;;23.30;;
60038;SDS011;45916;52.734;6.544;2023-03-01T07:11:03;26.23;;;22.75;;
60038;SDS011;45916;52.734;6.544;2023-03-01T07:13:30;24.33;;;21.63;;
60038;SDS011;45916;52.734;6.544;2023-03-01T07:15:56;26.83;;;21.60;;
60038;SDS011;45916;52.734;6.544;2023-03-01T07:18:22;23.63;;;21.13;;
60038;SDS011;45916;52.734;6.544;2023-03-01T07:20:48;23.42;;;21.02;;
60038;SDS011;45916;52.734;6.544;2023-03-01T07:23:14;22.25;;;19.92;;
60038;SDS011;45916;52.734;6.544;2023-03-01T07:25:40;23.98;;;20.92;;
60038;SDS011;45916;52.734;6.544;2023-03-01T07:28:06;21.45;;;19.25;;
60038;SDS011;45916;52.734;6.544;2023-03-01T07:30:32;20.88;;;18.90;;
60038;SDS011;45916;52.734;6.544;2023-03-01T07:32:58;21.30;;;19.17;;
60038;SDS011;45916;52.734;6.544;2023-03-01T07:35:25;22.02;;;19.83;;
60038;SDS011;45916;52.734;6.544;2023-03-01T07:37:51;21.33;;;19.27;;
60038;SDS011;45916;52.734;6.544;2023-03-01T07:40:17;21.23;;;19.17;;
60038;SDS011;45916;52.734;6.544;2023-03-01T07:42:43;21.73;;;19.73;;
60038;SDS011;45916;52.734;6.544;2023-03-01T07:45:09;23.73;;;21.23;;
60038;SDS011;45916;52.734;6.544;2023-03-01T07:47:37;25.77;;;22.98;;
60038;SDS011;45916;52.734;6.544;2023-03-01T07:50:03;24.65;;;22.08;;
60038;SDS011;45916;52.734;6.544;2023-03-01T07:52:29;25.52;;;22.92;;
60038;SDS011;45916;52.734;6.544;2023-03-01T07:54:55;24.77;;;22.33;;
60038;SDS011;45916;52.734;6.544;2023-03-01T07:57:22;26.35;;;23.63;;
60038;SDS011;45916;52.734;6.544;2023-03-01T07:59:48;24.85;;;22.25;;
60038;SDS011;45916;52.734;6.544;2023-03-01T08:02:13;25.10;;;22.65;;
60038;SDS011;45916;52.734;6.544;2023-03-01T08:04:40;25.30;;;22.77;;
60038;SDS011;45916;52.734;6.544;2023-03-01T08:07:07;25.58;;;22.55;;
60038;SDS011;45916;52.734;6.544;2023-03-01T08:09:36;23.52;;;21.23;;
60038;SDS011;45916;52.734;6.544;2023-03-01T08:12:02;23.15;;;20.88;;
60038;SDS011;45916;52.734;6.544;2023-03-01T08:14:29;25.40;;;22.65;;
60038;SDS011;45916;52.734;6.544;2023-03-01T08:16:56;22.63;;;20.48;;
60038;SDS011;45916;52.734;6.544;2023-03-01T08:19:22;23.00;;;20.83;;
60038;SDS011;45916;52.734;6.544;2023-03-01T08:21:48;23.40;;;21.15;;
60038;SDS011;45916;52.734;6.544;2023-03-01T08:24:13;21.83;;;19.67;;
60038;SDS011;45916;52.734;6.544;2023-03-01T08:26:39;22.08;;;19.88;;
60038;SDS011;45916;52.734;6.544;2023-03-01T08:29:05;22.25;;;20.13;;
60038;SDS011;45916;52.734;6.544;2023-03-01T08:31:32;20.42;;;18.52;;
60038;SDS011;45916;52.734;6.544;2023-03-01T08:34:01;21.85;;;19.75;;
60038;SDS011;45916;52.734;6.544;2023-03-01T08:36:30;22.58;;;20.48;;
60038;SDS011;45916;52.734;6.544;2023-03-01T08:38:58;22.15;;;20.02;;
60038;SDS011;45916;52.734;6.544;2023-03-01T08:41:23;20.98;;;18.88;;
60038;SDS011;45916;52.734;6.544;2023-03-01T08:43:49;20.02;;;18.13;;
60038;SDS011;45916;52.734;6.544;2023-03-01T08:46:16;20.23;;;18.33;;
60038;SDS011;45916;52.734;6.544;2023-03-01T08:48:41;20.05;;;18.25;;
60038;SDS011;45916;52.734;6.544;2023-03-01T08:51:14;18.83;;;16.92;;
60038;SDS011;45916;52.734;6.544;2023-03-01T08:53:41;18.90;;;17.15;;
60038;SDS011;45916;52.734;6.544;2023-03-01T08:56:08;18.10;;;16.42;;
60038;SDS011;45916;52.734;6.544;2023-03-01T08:58:34;18.33;;;16.52;;
60038;SDS011;45916;52.734;6.544;2023-03-01T09:01:01;18.17;;;16.48;;
60038;SDS011;45916;52.734;6.544;2023-03-01T09:03:32;16.95;;;15.25;;
60038;SDS011;45916;52.734;6.544;2023-03-01T09:06:01;16.48;;;15.02;;
60038;SDS011;45916;52.734;6.544;2023-03-01T09:08:28;15.13;;;13.68;;
60038;SDS011;45916;52.734;6.544;2023-03-01T09:10:54;14.60;;;13.20;;
60038;SDS011;45916;52.734;6.544;2023-03-01T09:13:20;14.55;;;12.77;;
60038;SDS011;45916;52.734;6.544;2023-03-01T09:15:45;14.90;;;13.50;;
60038;SDS011;45916;52.734;6.544;2023-03-01T09:18:11;13.70;;;12.30;;
60038;SDS011;45916;52.734;6.544;2023-03-01T09:20:37;14.65;;;13.20;;
60038;SDS011;45916;52.734;6.544;2023-03-01T09:23:02;14.70;;;13.20;;
60038;SDS011;45916;52.734;6.544;2023-03-01T09:25:28;14.25;;;12.77;;
60038;SDS011;45916;52.734;6.544;2023-03-01T09:27:54;13.55;;;12.25;;
60038;SDS011;45916;52.734;6.544;2023-03-01T09:30:20;13.73;;;12.32;;
60038;SDS011;45916;52.734;6.544;2023-03-01T09:32:46;11.82;;;9.95;;
60038;SDS011;45916;52.734;6.544;2023-03-01T09:35:11;12.65;;;11.45;;
60038;SDS011;45916;52.734;6.544;2023-03-01T09:37:37;12.10;;;10.90;;
60038;SDS011;45916;52.734;6.544;2023-03-01T09:40:28;12.07;;;10.88;;
60038;SDS011;45916;52.734;6.544;2023-03-01T09:45:41;9.90;;;8.70;;
60038;SDS011;45916;52.734;6.544;2023-03-01T09:48:12;9.90;;;8.52;;
60038;SDS011;45916;52.734;6.544;2023-03-01T09:50:43;9.02;;;8.13;;
60038;SDS011;45916;52.734;6.544;2023-03-01T09:53:19;11.10;;;9.15;;
60038;SDS011;45916;52.734;6.544;2023-03-01T09:55:52;8.70;;;6.78;;
60038;SDS011;45916;52.734;6.544;2023-03-01T10:00:48;8.88;;;7.70;;
60038;SDS011;45916;52.734;6.544;2023-03-01T10:06:22;7.82;;;6.78;;
60038;SDS011;45916;52.734;6.544;2023-03-01T10:11:39;7.70;;;5.68;;
60038;SDS011;45916;52.734;6.544;2023-03-01T10:19:28;8.27;;;5.90;;
60038;SDS011;45916;52.734;6.544;2023-03-01T10:22:03;6.72;;;4.93;;
60038;SDS011;45916;52.734;6.544;2023-03-01T10:24:36;8.15;;;5.03;;
60038;SDS011;45916;52.734;6.544;2023-03-01T10:27:07;7.35;;;5.30;;
60038;SDS011;45916;52.734;6.544;2023-03-01T10:32:36;7.25;;;5.00;;
60038;SDS011;45916;52.734;6.544;2023-03-01T10:35:14;6.97;;;5.45;;
60038;SDS011;45916;52.734;6.544;2023-03-01T10:38:24;7.45;;;4.43;;
60038;SDS011;45916;52.734;6.544;2023-03-01T10:40:56;6.63;;;5.05;;
60038;SDS011;45916;52.734;6.544;2023-03-01T10:43:30;9.23;;;6.35;;
60038;SDS011;45916;52.734;6.544;2023-03-01T10:46:24;8.77;;;6.38;;
60038;SDS011;45916;52.734;6.544;2023-03-01T10:51:47;7.90;;;6.10;;
60038;SDS011;45916;52.734;6.544;2023-03-01T10:54:31;8.13;;;6.22;;
60038;SDS011;45916;52.734;6.544;2023-03-01T10:56:59;9.60;;;6.70;;
60038;SDS011;45916;52.734;6.544;2023-03-01T10:59:30;9.65;;;7.13;;
60038;SDS011;45916;52.734;6.544;2023-03-01T11:07:49;8.73;;;7.57;;
60038;SDS011;45916;52.734;6.544;2023-03-01T11:10:29;9.10;;;7.00;;
60038;SDS011;45916;52.734;6.544;2023-03-01T11:15:31;9.02;;;7.03;;
60038;SDS011;45916;52.734;6.544;2023-03-01T11:17:57;9.85;;;7.10;;
60038;SDS011;45916;52.734;6.544;2023-03-01T11:22:56;9.60;;;7.03;;
60038;SDS011;45916;52.734;6.544;2023-03-01T11:25:29;9.50;;;6.78;;
60038;SDS011;45916;52.734;6.544;2023-03-01T11:28:03;8.20;;;6.60;;
60038;SDS011;45916;52.734;6.544;2023-03-01T11:30:32;9.68;;;6.75;;
60038;SDS011;45916;52.734;6.544;2023-03-01T11:35:34;10.02;;;6.80;;
60038;SDS011;45916;52.734;6.544;2023-03-01T11:40:50;8.65;;;6.22;;
60038;SDS011;45916;52.734;6.544;2023-03-01T11:54:13;10.48;;;7.80;;
60038;SDS011;45916;52.734;6.544;2023-03-01T12:07:50;14.48;;;10.32;;
60038;SDS011;45916;52.734;6.544;2023-03-01T12:10:26;13.23;;;10.18;;
60038;SDS011;45916;52.734;6.544;2023-03-01T12:29:41;14.10;;;10.35;;
60038;SDS011;45916;52.734;6.544;2023-03-01T12:32:39;12.25;;;10.10;;
60038;SDS011;45916;52.734;6.544;2023-03-01T12:49:15;12.57;;;9.90;;
60038;SDS011;45916;52.734;6.544;2023-03-01T12:51:44;12.75;;;9.65;;
60038;SDS011;45916;52.734;6.544;2023-03-01T12:54:31;12.80;;;9.18;;
60038;SDS011;45916;52.734;6.544;2023-03-01T12:57:12;11.35;;;8.07;;
60038;SDS011;45916;52.734;6.544;2023-03-01T13:03:36;10.93;;;8.13;;
60038;SDS011;45916;52.734;6.544;2023-03-01T13:08:49;11.98;;;8.90;;
60038;SDS011;45916;52.734;6.544;2023-03-01T13:11:40;12.02;;;9.57;;
60038;SDS011;45916;52.734;6.544;2023-03-01T13:16:46;12.75;;;9.30;;
60038;SDS011;45916;52.734;6.544;2023-03-01T13:21:43;12.07;;;9.55;;
60038;SDS011;45916;52.734;6.544;2023-03-01T13:24:29;12.27;;;10.10;;
60038;SDS011;45916;52.734;6.544;2023-03-01T13:29:48;12.90;;;9.38;;
60038;SDS011;45916;52.734;6.544;2023-03-01T13:34:47;12.13;;;9.75;;
60038;SDS011;45916;52.734;6.544;2023-03-01T13:37:21;12.82;;;9.35;;
60038;SDS011;45916;52.734;6.544;2023-03-01T13:39:54;13.32;;;10.52;;
60038;SDS011;45916;52.734;6.544;2023-03-01T13:42:33;13.55;;;10.65;;
60038;SDS011;45916;52.734;6.544;2023-03-01T13:45:05;13.77;;;11.05;;
60038;SDS011;45916;52.734;6.544;2023-03-01T13:48:18;15.77;;;10.63;;
60038;SDS011;45916;52.734;6.544;2023-03-01T13:53:35;14.77;;;10.40;;
60038;SDS011;45916;52.734;6.544;2023-03-01T13:58:59;12.40;;;9.98;;
60038;SDS011;45916;52.734;6.544;2023-03-01T14:01:30;12.18;;;8.98;;
60038;SDS011;45916;52.734;6.544;2023-03-01T14:03:58;12.70;;;9.93;;
60038;SDS011;45916;52.734;6.544;2023-03-01T14:06:25;12.02;;;8.60;;
60038;SDS011;45916;52.734;6.544;2023-03-01T14:11:51;15.35;;;10.10;;
60038;SDS011;45916;52.734;6.544;2023-03-01T14:19:57;12.02;;;9.35;;
60038;SDS011;45916;52.734;6.544;2023-03-01T14:22:30;12.68;;;9.57;;
60038;SDS011;45916;52.734;6.544;2023-03-01T14:25:06;13.82;;;9.85;;
60038;SDS011;45916;52.734;6.544;2023-03-01T14:27:42;14.77;;;10.57;;
60038;SDS011;45916;52.734;6.544;2023-03-01T14:30:11;16.25;;;10.02;;
60038;SDS011;45916;52.734;6.544;2023-03-01T14:32:40;13.75;;;10.90;;
60038;SDS011;45916;52.734;6.544;2023-03-01T14:35:20;13.38;;;10.38;;
60038;SDS011;45916;52.734;6.544;2023-03-01T14:37:56;13.68;;;10.38;;
60038;SDS011;45916;52.734;6.544;2023-03-01T14:42:58;14.80;;;11.20;;
60038;SDS011;45916;52.734;6.544;2023-03-01T14:47:54;16.27;;;11.27;;
60038;SDS011;45916;52.734;6.544;2023-03-01T14:50:27;15.60;;;11.13;;
60038;SDS011;45916;52.734;6.544;2023-03-01T14:52:58;17.88;;;11.73;;
60038;SDS011;45916;52.734;6.544;2023-03-01T14:55:30;15.95;;;12.95;;
60038;SDS011;45916;52.734;6.544;2023-03-01T14:58:02;17.02;;;12.38;;
60038;SDS011;45916;52.734;6.544;2023-03-01T15:00:36;14.48;;;11.65;;
60038;SDS011;45916;52.734;6.544;2023-03-01T15:03:08;16.15;;;12.02;;
60038;SDS011;45916;52.734;6.544;2023-03-01T15:05:40;18.40;;;12.32;;
60038;SDS011;45916;52.734;6.544;2023-03-01T15:10:41;16.50;;;11.52;;
60038;SDS011;45916;52.734;6.544;2023-03-01T15:13:25;15.48;;;11.93;;
60038;SDS011;45916;52.734;6.544;2023-03-01T15:16:00;16.35;;;12.75;;
60038;SDS011;45916;52.734;6.544;2023-03-01T15:18:31;16.80;;;13.48;;
60038;SDS011;45916;52.734;6.544;2023-03-01T15:21:08;18.05;;;13.85;;
60038;SDS011;45916;52.734;6.544;2023-03-01T15:23:47;17.02;;;12.32;;
60038;SDS011;45916;52.734;6.544;2023-03-01T15:26:44;18.85;;;14.07;;
60038;SDS011;45916;52.734;6.544;2023-03-01T15:29:20;18.48;;;13.10;;
60038;SDS011;45916;52.734;6.544;2023-03-01T15:34:45;17.27;;;12.80;;
60038;SDS011;45916;52.734;6.544;2023-03-01T15:42:50;17.55;;;13.15;;
60038;SDS011;45916;52.734;6.544;2023-03-01T15:47:46;17.13;;;13.18;;
60038;SDS011;45916;52.734;6.544;2023-03-01T15:52:48;16.85;;;12.75;;
60038;SDS011;45916;52.734;6.544;2023-03-01T15:55:20;17.95;;;12.98;;
60038;SDS011;45916;52.734;6.544;2023-03-01T15:58:02;18.70;;;13.65;;
60038;SDS011;45916;52.734;6.544;2023-03-01T16:00:31;16.60;;;13.20;;
60038;SDS011;45916;52.734;6.544;2023-03-01T16:02:58;18.08;;;13.00;;
60038;SDS011;45916;52.734;6.544;2023-03-01T16:05:25;15.85;;;12.23;;
60038;SDS011;45916;52.734;6.544;2023-03-01T16:07:56;17.80;;;13.10;;
60038;SDS011;45916;52.734;6.544;2023-03-01T16:10:22;19.15;;;13.45;;
60038;SDS011;45916;52.734;6.544;2023-03-01T16:12:48;17.92;;;12.35;;
60038;SDS011;45916;52.734;6.544;2023-03-01T16:15:21;17.02;;;12.07;;
60038;SDS011;45916;52.734;6.544;2023-03-01T16:17:50;15.38;;;12.43;;
60038;SDS011;45916;52.734;6.544;2023-03-01T16:20:17;18.95;;;14.48;;
60038;SDS011;45916;52.734;6.544;2023-03-01T16:22:43;16.02;;;13.15;;
60038;SDS011;45916;52.734;6.544;2023-03-01T16:25:10;19.73;;;13.75;;
60038;SDS011;45916;52.734;6.544;2023-03-01T16:27:37;16.88;;;13.05;;
60038;SDS011;45916;52.734;6.544;2023-03-01T16:30:04;17.08;;;13.35;;
60038;SDS011;45916;52.734;6.544;2023-03-01T16:32:31;18.33;;;14.18;;
60038;SDS011;45916;52.734;6.544;2023-03-01T16:34:56;17.67;;;13.43;;
60038;SDS011;45916;52.734;6.544;2023-03-01T16:37:22;16.52;;;12.70;;
60038;SDS011;45916;52.734;6.544;2023-03-01T16:39:48;16.95;;;13.38;;
60038;SDS011;45916;52.734;6.544;2023-03-01T16:42:17;16.85;;;13.95;;
60038;SDS011;45916;52.734;6.544;2023-03-01T16:44:43;16.92;;;13.20;;
60038;SDS011;45916;52.734;6.544;2023-03-01T16:47:08;18.20;;;13.02;;
60038;SDS011;45916;52.734;6.544;2023-03-01T16:49:34;19.25;;;13.75;;
60038;SDS011;45916;52.734;6.544;2023-03-01T16:51:59;19.50;;;14.48;;
60038;SDS011;45916;52.734;6.544;2023-03-01T16:54:25;19.20;;;14.65;;
60038;SDS011;45916;52.734;6.544;2023-03-01T16:56:51;18.10;;;14.55;;
60038;SDS011;45916;52.734;6.544;2023-03-01T16:59:16;19.33;;;14.63;;
60038;SDS011;45916;52.734;6.544;2023-03-01T17:01:44;18.73;;;13.63;;
60038;SDS011;45916;52.734;6.544;2023-03-01T17:04:10;19.23;;;14.60;;
60038;SDS011;45916;52.734;6.544;2023-03-01T17:06:36;21.00;;;15.52;;
60038;SDS011;45916;52.734;6.544;2023-03-01T17:09:02;19.55;;;15.18;;
60038;SDS011;45916;52.734;6.544;2023-03-01T17:11:28;18.33;;;14.07;;
60038;SDS011;45916;52.734;6.544;2023-03-01T17:13:54;18.95;;;15.13;;
60038;SDS011;45916;52.734;6.544;2023-03-01T17:16:20;19.77;;;15.15;;
60038;SDS011;45916;52.734;6.544;2023-03-01T17:18:46;18.17;;;13.73;;